Holbrook, AZ

8:33 PM MST on October 24, 2014 (GMT -0700)
Show Low Municipal | Change Station
CLOSE
Current Station
Airport
Location: Show Low,
Elevation: 6414 ft
Nearby Weather Stations

Elev 6414 ft 34.27 °N, 110.00 °W | Updated 18 minutes ago

Clear
Clear
55 °F
Feels Like 55 °F
N
5
Wind Variable Wind from South

Today
High -- | Low -- °F
--% Chance of Precip.
Yesterday
High -- | Low -- °F
Precip. -- in
6:34 AM 5:34 PM
New Moon, 2% visible
Pressure 30.35 in
Visibility 10.0 miles
Clouds Clear
Dew Point 37 °F
Humidity 51%
Rainfall 0.00 in
Snow Depth Not available.
UV 0 out of 12
Pollen 4.40 out of 12
Air Quality Not available.
Flu Activity No Activity
METAR KSOW 250315Z AUTO 17004KT 10SM CLR 13/03 A3035 RMK AO2

More Conditions Fewer Conditions

Pressure 30.35 in
Visibility 10.0 miles
Clouds Clear
Dew Point 37 °F
Humidity 51%
Rainfall 0.00 in
Snow Depth Not available.
UV 0 out of 12
Pollen 4.40 out of 12
Air Quality Not available.
Flu Activity No Activity
METAR KSOW 250315Z AUTO 17004KT 10SM CLR 13/03 A3035 RMK AO2

More Conditions Fewer Conditions

10-Day Weather Forecast

Almanac

Astronomy

Oct. 24, 2014 Rise Set
Actual Time 6:34 AM MST 5:34 PM MST
Civil Twilight 6:08 AM MST 6:00 PM MST
Nautical Twilight 5:38 AM MST 6:30 PM MST
Astronomical Twilight 5:09 AM MST 6:59 PM MST
Moon 7:15 AM MST (10/24) 6:19 PM MST (10/24)
Length of Visible Light 11h 52m
Length of Day
11h 00m
Tomorrow will be 2m 0s shorter.
New Moon, 2% of the Moon is Illuminated
Today
New Moon
Oct 30
First Quarter
Nov 6
Full
Nov 14
Last Quarter
Nov 22
New

Today's Extremes

State Highs State Lows

Community

WunderPhotos

Upload Photos

1,764,771 photos uploaded!

Nearby

Snow Depth

Station Depth Elevation
Promontory 0 in 7930 ft
Happy Jack 0 in 7630 ft
Baldy 1 in 9125 ft
Mormon Mountain 0 in 7500 ft
Baker Butte 0 in 7300 ft

Earthquake Activity

City Distance Mag. Time & Date
No recent earthquake activity has been reported nearby.
Minimum magnitude displayed is 2.5.

Coastal Water Temperatures

Place Temperature
No Stations Reporting

Nearby Weather Stations